Time;durP1;ratioP1;P1;durP2;ratioP2;P2;SDS_P1;SDS_P2;PMS_P1;PMS_P2;Temp;Humidity;BMP_temperature;BMP_pressure;BME280_temperature;BME280_humidity;BME280_pressure;Samples;Min_cycle;Max_cycle;Signal;HPM_P1;HPM_P2
2023/02/10 00:00:23;;;;;;;32.90;12.40;;;;;;;;;;5007348;28;20495;-85
2023/02/10 00:02:51;;;;;;;;;;;;;;;;;;5019287;28;20057;-84
2023/02/10 00:05:19;;;;;;;23.88;11.48;;;;;;;;;;5012350;28;19921;-85
2023/02/10 00:07:47;;;;;;;27.33;10.65;;;;;;;;;;5037465;28;20391;-85
2023/02/10 00:10:14;;;;;;;;;;;;;;;;;;5023164;28;20077;-84
2023/02/10 00:12:43;;;;;;;18.30;9.80;;;;;;;;;;5005664;28;19922;-84
2023/02/10 00:15:11;;;;;;;31.95;12.98;;;;;;;;;;5003865;28;20498;-85
2023/02/10 00:17:44;;;;;;;31.33;12.68;;;;;;;;;;5014903;28;20065;-85
2023/02/10 00:20:18;;;;;;;32.58;12.25;;;;;;;;;;5010097;28;20048;-86
2023/02/10 00:22:50;;;;;;;28.20;11.45;;;;;;;;;;5022344;28;20057;-86
2023/02/10 00:25:18;;;;;;;;;;;;;;;;;;5015647;28;20057;-84
2023/02/10 00:27:47;;;;;;;25.63;13.88;;;;;;;;;;5014924;28;19989;-86
2023/02/10 00:30:15;;;;;;;29.98;12.70;;;;;;;;;;5001089;28;20052;-83
2023/02/10 00:32:42;;;;;;;;;;;;;;;;;;5025047;28;20625;-85
2023/02/10 00:35:11;;;;;;;27.40;21.02;;;;;;;;;;5015630;28;19928;-84
2023/02/10 00:37:39;;;;;;;73.40;68.65;;;;;;;;;;5016926;28;20050;-86
2023/02/10 00:40:12;;;;;;;94.53;83.72;;;;;;;;;;5006824;28;20041;-84
2023/02/10 00:42:45;;;;;;;43.08;39.40;;;;;;;;;;5023379;28;20076;-84
2023/02/10 00:45:19;;;;;;;74.05;66.63;;;;;;;;;;5019165;28;20057;-86
2023/02/10 00:47:53;;;;;;;1508.03;756.25;;;;;;;;;;5015875;28;20426;-85
2023/02/10 00:50:21;;;;;;;1999.90;999.90;;;;;;;;;;5011625;28;20496;-85
2023/02/10 00:52:53;;;;;;;1999.90;999.90;;;;;;;;;;5018825;28;20050;-84
2023/02/10 00:55:26;;;;;;;1999.90;999.90;;;;;;;;;;5018687;28;20058;-85
2023/02/10 00:57:54;;;;;;;;;;;;;;;;;;5019374;28;20056;-84
2023/02/10 01:00:28;;;;;;;1999.90;999.90;;;;;;;;;;5030601;28;20297;-85
2023/02/10 01:03:01;;;;;;;1999.90;999.90;;;;;;;;;;5018358;28;20050;-84
2023/02/10 01:05:33;;;;;;;1999.90;999.90;;;;;;;;;;5008418;28;20054;-84
2023/02/10 01:08:06;;;;;;;1999.90;999.90;;;;;;;;;;5015703;28;20048;-85
2023/02/10 01:10:39;;;;;;;1999.90;999.90;;;;;;;;;;5027564;28;20053;-84
2023/02/10 01:13:07;;;;;;;;;;;;;;;;;;5025009;28;20057;-85
2023/02/10 01:15:34;;;;;;;;;;;;;;;;;;5020483;28;19932;-84
2023/02/10 01:18:09;;;;;;;1999.90;999.90;;;;;;;;;;5030934;28;19929;-85
2023/02/10 01:20:38;;;;;;;1999.90;999.90;;;;;;;;;;5010724;28;20053;-85
2023/02/10 01:23:11;;;;;;;1999.90;999.90;;;;;;;;;;5015304;28;20050;-85
2023/02/10 01:25:44;;;;;;;1999.90;999.90;;;;;;;;;;5019259;28;20064;-84
2023/02/10 01:28:12;;;;;;;1999.90;999.90;;;;;;;;;;5013514;28;20053;-85
2023/02/10 01:30:40;;;;;;;;;;;;;;;;;;5025423;28;20072;-86
2023/02/10 01:33:07;;;;;;;;;;;;;;;;;;5027500;28;19922;-85
2023/02/10 01:35:41;;;;;;;1999.90;999.90;;;;;;;;;;5027158;28;20870;-85
2023/02/10 01:38:09;;;;;;;1999.90;999.90;;;;;;;;;;5043504;28;20056;-85
2023/02/10 01:40:42;;;;;;;1999.90;999.90;;;;;;;;;;5018782;28;20050;-85
2023/02/10 01:43:09;;;;;;;;;;;;;;;;;;5013706;28;20053;-85
2023/02/10 01:45:38;;;;;;;1999.90;999.90;;;;;;;;;;5008065;28;19928;-83
2023/02/10 01:48:07;;;;;;;1999.90;999.90;;;;;;;;;;5016969;28;20069;-85
2023/02/10 01:50:43;;;;;;;1999.90;999.90;;;;;;;;;;5010114;28;20074;-84
2023/02/10 01:53:14;;;;;;;1999.90;999.90;;;;;;;;;;5014515;28;20069;-85
2023/02/10 01:55:43;;;;;;;1999.90;999.90;;;;;;;;;;5015149;28;20860;-85
2023/02/10 01:58:13;;;;;;;1999.90;999.90;;;;;;;;;;5036868;28;20061;-84
2023/02/10 02:00:46;;;;;;;1999.90;999.90;;;;;;;;;;5022734;28;20061;-83
2023/02/10 02:03:19;;;;;;;1999.90;999.90;;;;;;;;;;5010861;28;20415;-84
2023/02/10 02:05:48;;;;;;;1999.90;999.90;;;;;;;;;;5019768;28;20041;-87
2023/02/10 02:08:19;;;;;;;1999.90;999.90;;;;;;;;;;5013527;28;20982;-83
2023/02/10 02:11:00;;;;;;;1999.90;999.90;;;;;;;;;;5027352;28;20057;-84
2023/02/10 02:13:40;;;;;;;1999.90;999.90;;;;;;;;;;5016177;28;20061;-84
2023/02/10 02:16:18;;;;;;;1999.90;999.90;;;;;;;;;;5021290;28;20049;-85
2023/02/10 02:18:49;;;;;;;1999.90;999.90;;;;;;;;;;5024621;28;20049;-84
2023/02/10 02:21:50;;;;;;;1999.90;999.90;;;;;;;;;;5034830;28;20490;-84
2023/02/10 02:24:32;;;;;;;1999.90;999.90;;;;;;;;;;5011251;28;20057;-84
2023/02/10 02:27:09;;;;;;;1999.90;999.90;;;;;;;;;;5020000;28;20126;-84
2023/02/10 02:29:57;;;;;;;1999.90;999.90;;;;;;;;;;5030682;28;20050;-84
2023/02/10 02:32:27;;;;;;;1999.90;999.90;;;;;;;;;;5017250;28;20410;-87
2023/02/10 02:35:02;;;;;;;1999.90;999.90;;;;;;;;;;5011657;28;20057;-84
2023/02/10 02:37:32;;;;;;;1999.90;999.90;;;;;;;;;;5031359;28;20049;-84
2023/02/10 02:40:01;;;;;;;1999.90;999.90;;;;;;;;;;5008787;28;20047;-84
2023/02/10 02:42:30;;;;;;;1999.90;999.90;;;;;;;;;;5012375;28;20414;-83
2023/02/10 02:45:05;;;;;;;1999.90;999.90;;;;;;;;;;5010742;28;20050;-83
2023/02/10 02:47:45;;;;;;;1999.90;999.90;;;;;;;;;;5028256;28;20065;-83
2023/02/10 02:50:20;;;;;;;1999.90;999.90;;;;;;;;;;5017899;28;20049;-83
2023/02/10 02:52:53;;;;;;;1999.90;999.90;;;;;;;;;;5009368;28;20495;-83
2023/02/10 02:55:26;;;;;;;;;;;;;;;;;;5014102;28;20062;-84
2023/02/10 02:57:56;;;;;;;1999.90;999.90;;;;;;;;;;5025457;28;19931;-84
2023/02/10 03:00:26;;;;;;;1999.90;999.90;;;;;;;;;;5024965;28;20180;-84
2023/02/10 03:02:55;;;;;;;1999.90;999.90;;;;;;;;;;5009880;28;20082;-84
2023/02/10 03:05:29;;;;;;;1999.90;999.90;;;;;;;;;;5022548;28;20403;-84
2023/02/10 03:08:02;;;;;;;1999.90;999.90;;;;;;;;;;5012475;28;20529;-84
2023/02/10 03:10:35;;;;;;;1999.90;999.90;;;;;;;;;;5031251;28;20046;-85
2023/02/10 03:13:02;;;;;;;;;;;;;;;;;;5019462;28;20061;-84
2023/02/10 03:15:30;;;;;;;1999.90;999.90;;;;;;;;;;5026961;28;19928;-84
2023/02/10 03:18:05;;;;;;;1999.90;999.90;;;;;;;;;;5028472;28;20053;-84
2023/02/10 03:20:39;;;;;;;1999.90;999.90;;;;;;;;;;5013488;28;20060;-84
2023/02/10 03:23:14;;;;;;;1999.90;999.90;;;;;;;;;;5020403;28;20057;-85
2023/02/10 03:25:47;;;;;;;1999.90;999.90;;;;;;;;;;5009928;28;20050;-84
2023/02/10 03:28:20;;;;;;;1999.90;999.90;;;;;;;;;;5021272;28;20069;-84
2023/02/10 03:30:48;;;;;;;;;;;;;;;;;;5008133;28;20407;-83
2023/02/10 03:33:18;;;;;;;1999.90;999.90;;;;;;;;;;5023931;28;19921;-83
2023/02/10 03:35:46;;;;;;;1999.90;999.90;;;;;;;;;;5013528;28;20540;-83
2023/02/10 03:38:19;;;;;;;1999.90;999.90;;;;;;;;;;5018993;28;20053;-83
2023/02/10 03:40:46;;;;;;;;;;;;;;;;;;5029373;28;20046;-84
2023/02/10 03:43:14;;;;;;;1999.90;999.90;;;;;;;;;;5014401;28;19932;-84
2023/02/10 03:45:42;;;;;;;;;;;;;;;;;;5026962;28;20069;-83
2023/02/10 03:48:09;;;;;;;1999.90;999.90;;;;;;;;;;5012184;28;20374;-84
2023/02/10 03:50:44;;;;;;;1999.90;999.90;;;;;;;;;;5020028;28;20041;-83
2023/02/10 03:53:17;;;;;;;1999.90;999.90;;;;;;;;;;5012682;28;20384;-84
2023/02/10 03:55:44;;;;;;;;;;;;;;;;;;5011139;28;20062;-83
2023/02/10 03:58:17;;;;;;;1999.90;999.90;;;;;;;;;;5013907;28;20377;-82
2023/02/10 04:00:50;;;;;;;1999.90;999.90;;;;;;;;;;5014863;28;20057;-83
2023/02/10 04:03:22;;;;;;;1999.90;999.90;;;;;;;;;;5020511;28;20395;-85
2023/02/10 04:05:57;;;;;;;1999.90;999.90;;;;;;;;;;5002829;28;20049;-85
2023/02/10 04:08:24;;;;;;;1999.90;999.90;;;;;;;;;;5016397;28;20061;-84
2023/02/10 04:10:52;;;;;;;;;;;;;;;;;;5027812;28;20051;-84
2023/02/10 04:13:20;;;;;;;1999.90;999.90;;;;;;;;;;5004141;28;20275;-84
2023/02/10 04:16:00;;;;;;;1999.90;999.90;;;;;;;;;;5004153;28;20054;-85
2023/02/10 04:18:28;;;;;;;1999.90;999.90;;;;;;;;;;5020456;28;20057;-83
2023/02/10 04:20:57;;;;;;;1999.90;999.90;;;;;;;;;;5010950;28;20054;-84
2023/02/10 04:23:30;;;;;;;1999.90;999.90;;;;;;;;;;5004013;28;20392;-85
2023/02/10 04:25:58;;;;;;;1999.90;999.90;;;;;;;;;;5024754;28;20064;-84
2023/02/10 04:28:26;;;;;;;1999.90;999.90;;;;;;;;;;5008328;28;20049;-84
2023/02/10 04:30:55;;;;;;;1999.90;999.90;;;;;;;;;;5011326;28;20050;-85
2023/02/10 04:33:24;;;;;;;1999.90;999.90;;;;;;;;;;5017703;28;20052;-84
2023/02/10 04:35:58;;;;;;;1999.90;999.90;;;;;;;;;;5017133;28;20410;-83
2023/02/10 04:38:26;;;;;;;1999.90;999.90;;;;;;;;;;5005200;28;20062;-84
2023/02/10 04:40:59;;;;;;;1999.90;999.90;;;;;;;;;;5010776;28;20052;-84
2023/02/10 04:43:32;;;;;;;1999.90;999.90;;;;;;;;;;5013336;28;20049;-85
2023/02/10 04:46:04;;;;;;;1999.90;999.90;;;;;;;;;;5012003;28;20053;-85
2023/02/10 04:48:32;;;;;;;1999.90;999.90;;;;;;;;;;5023850;28;20054;-85
2023/02/10 04:51:00;;;;;;;;;;;;;;;;;;5008002;28;20050;-83
2023/02/10 04:53:29;;;;;;;1999.90;999.90;;;;;;;;;;5006552;28;19929;-84
2023/02/10 04:56:03;;;;;;;1999.90;999.90;;;;;;;;;;5025255;28;20050;-84
2023/02/10 04:58:36;;;;;;;1999.90;999.90;;;;;;;;;;5017525;28;20058;-84
2023/02/10 05:01:10;;;;;;;1999.90;999.90;;;;;;;;;;5016040;28;20054;-83
2023/02/10 05:03:43;;;;;;;1999.90;999.90;;;;;;;;;;5013027;28;20046;-83
2023/02/10 05:06:16;;;;;;;1999.90;999.90;;;;;;;;;;5017094;28;20407;-84
2023/02/10 05:08:44;;;;;;;;;;;;;;;;;;5023143;28;20053;-84
2023/02/10 05:11:13;;;;;;;1999.90;999.90;;;;;;;;;;5016383;28;19921;-84
2023/02/10 05:13:46;;;;;;;1999.90;999.90;;;;;;;;;;5014635;28;20073;-85
2023/02/10 05:16:14;;;;;;;;;;;;;;;;;;5014655;28;20058;-85
2023/02/10 05:18:46;;;;;;;1999.90;999.90;;;;;;;;;;5007152;28;19922;-84
2023/02/10 05:21:19;;;;;;;1999.90;999.90;;;;;;;;;;5020069;28;20045;-85
2023/02/10 05:23:47;;;;;;;1999.90;999.90;;;;;;;;;;5019685;28;20049;-85
2023/02/10 05:26:16;;;;;;;1999.90;999.90;;;;;;;;;;5008652;28;20205;-85
2023/02/10 05:28:49;;;;;;;1999.90;999.90;;;;;;;;;;5014968;28;20153;-85
2023/02/10 05:31:23;;;;;;;1999.90;999.90;;;;;;;;;;5034850;28;20054;-84
2023/02/10 05:33:56;;;;;;;1999.90;999.90;;;;;;;;;;5024809;28;20069;-86
2023/02/10 05:36:29;;;;;;;1999.90;999.90;;;;;;;;;;5015829;28;20058;-87
2023/02/10 05:41:48;;;;;;;1999.90;999.90;;;;;;;;;;5020115;28;20455;-85
2023/02/10 05:44:17;;;;;;;1999.90;999.90;;;;;;;;;;5021458;28;20055;-83
2023/02/10 05:46:44;;;;;;;;;;;;;;;;;;5006100;28;20062;-84
2023/02/10 05:49:12;;;;;;;1999.90;999.90;;;;;;;;;;5027216;28;20293;-86
2023/02/10 05:51:45;;;;;;;1999.90;999.90;;;;;;;;;;5013001;28;20054;-85
2023/02/10 05:54:13;;;;;;;1999.90;999.90;;;;;;;;;;5020492;28;20053;-83
2023/02/10 05:56:41;;;;;;;1999.90;999.90;;;;;;;;;;5020813;28;20049;-84
2023/02/10 05:59:15;;;;;;;1999.90;999.90;;;;;;;;;;5013474;28;20125;-84
2023/02/10 06:01:48;;;;;;;1999.90;999.90;;;;;;;;;;5007431;28;20096;-85
2023/02/10 06:04:16;;;;;;;1999.90;999.90;;;;;;;;;;5007775;28;20058;-85
2023/02/10 06:06:49;;;;;;;1999.90;999.90;;;;;;;;;;5011489;28;20049;-85
2023/02/10 06:09:16;;;;;;;;;;;;;;;;;;5007969;28;20058;-85
2023/02/10 06:11:44;;;;;;;;;;;;;;;;;;5015923;28;20401;-83
2023/02/10 06:14:11;;;;;;;1999.90;999.90;;;;;;;;;;5005001;28;20298;-85
2023/02/10 06:16:46;;;;;;;1999.90;999.90;;;;;;;;;;5006142;28;20479;-85
2023/02/10 06:19:13;;;;;;;1999.90;999.90;;;;;;;;;;5015909;28;20066;-84
2023/02/10 06:21:46;;;;;;;1999.90;999.90;;;;;;;;;;5008774;28;20069;-85
2023/02/10 06:24:19;;;;;;;1999.90;999.90;;;;;;;;;;5004572;28;20046;-85
2023/02/10 06:26:52;;;;;;;1999.90;999.90;;;;;;;;;;5007740;28;20077;-85
2023/02/10 06:29:19;;;;;;;1999.90;999.90;;;;;;;;;;5008037;28;20058;-85
2023/02/10 06:31:49;;;;;;;1999.90;999.90;;;;;;;;;;5005742;28;20050;-86
2023/02/10 06:34:17;;;;;;;1999.90;999.90;;;;;;;;;;5005492;28;20062;-84
2023/02/10 06:36:49;;;;;;;1999.90;999.90;;;;;;;;;;4968745;28;1070754;-85
2023/02/10 06:39:17;;;;;;;;;;;;;;;;;;5004199;28;20056;-86
2023/02/10 06:41:45;;;;;;;;;;;;;;;;;;5006709;28;20377;-84
2023/02/10 06:44:12;;;;;;;1999.90;999.90;;;;;;;;;;5004860;28;19929;-85
2023/02/10 06:46:45;;;;;;;1999.90;999.90;;;;;;;;;;5010314;28;20042;-84
2023/02/10 06:49:19;;;;;;;1999.90;999.90;;;;;;;;;;5011909;28;20415;-86
2023/02/10 06:51:47;;;;;;;1999.90;999.90;;;;;;;;;;5033781;28;20046;-86
2023/02/10 06:54:20;;;;;;;1999.90;999.90;;;;;;;;;;5022469;28;20045;-86
2023/02/10 06:56:48;;;;;;;;;;;;;;;;;;5019617;28;20061;-84
2023/02/10 06:59:15;;;;;;;;;;;;;;;;;;5024821;28;19928;-87
2023/02/10 07:01:43;;;;;;;;;;;;;;;;;;5018869;28;19933;-86
2023/02/10 07:04:10;;;;;;;1999.90;999.90;;;;;;;;;;5007495;28;19928;-86
2023/02/10 07:06:38;;;;;;;;;;;;;;;;;;5010132;28;20045;-85
2023/02/10 07:09:12;;;;;;;1999.90;999.90;;;;;;;;;;5018436;28;19922;-85
2023/02/10 07:11:45;;;;;;;1999.90;999.90;;;;;;;;;;5002824;28;20049;-85
2023/02/10 07:14:12;;;;;;;;;;;;;;;;;;5006429;28;20042;-85
2023/02/10 07:16:45;;;;;;;1999.90;999.90;;;;;;;;;;5017760;28;19925;-82
2023/02/10 07:19:18;;;;;;;1999.90;999.90;;;;;;;;;;5022620;28;20050;-86
2023/02/10 07:21:45;;;;;;;;;;;;;;;;;;5009027;28;20046;-86
2023/02/10 07:24:14;;;;;;;1999.90;999.90;;;;;;;;;;5017605;28;20286;-84
2023/02/10 07:26:42;;;;;;;1999.90;999.90;;;;;;;;;;5003875;28;20529;-85
2023/02/10 07:29:10;;;;;;;1999.90;999.90;;;;;;;;;;5000209;28;20056;-84
2023/02/10 07:31:38;;;;;;;;;;;;;;;;;;5019063;28;20062;-85
2023/02/10 07:34:05;;;;;;;1999.90;999.90;;;;;;;;;;5010953;28;20302;-85
2023/02/10 07:36:38;;;;;;;1999.90;999.90;;;;;;;;;;5016519;28;20050;-85
2023/02/10 07:39:07;;;;;;;;;;;;;;;;;;5000469;28;20046;-86
2023/02/10 07:41:41;;;;;;;1999.90;999.90;;;;;;;;;;5003368;28;19929;-86
2023/02/10 07:44:09;;;;;;;1999.90;999.90;;;;;;;;;;5001338;28;20483;-84
2023/02/10 07:46:37;;;;;;;;;;;;;;;;;;4985412;28;20101;-86
2023/02/10 07:49:04;;;;;;;;;;;;;;;;;;4999633;28;19926;-86
2023/02/10 07:51:32;;;;;;;1999.90;999.90;;;;;;;;;;5018696;28;19928;-84
2023/02/10 07:54:00;;;;;;;;;;;;;;;;;;5000967;28;20057;-84
2023/02/10 07:56:33;;;;;;;1999.90;999.90;;;;;;;;;;4996922;28;19935;-82
2023/02/10 07:59:07;;;;;;;34.22;10.23;;;;;;;;;;5021363;28;20533;-84
2023/02/10 08:01:37;;;;;;;24.40;10.00;;;;;;;;;;5001802;28;20057;-85
2023/02/10 08:04:05;;;;;;;22.05;10.52;;;;;;;;;;5027181;28;20045;-92
2023/02/10 08:06:33;;;;;;;20.73;10.40;;;;;;;;;;5003812;28;20054;-88
2023/02/10 08:09:01;;;;;;;;;;;;;;;;;;5005664;28;20045;-86
2023/02/10 08:11:33;;;;;;;21.23;9.50;;;;;;;;;;5019959;28;19935;-85
2023/02/10 08:14:08;;;;;;;17.38;9.48;;;;;;;;;;5009772;28;20061;-88
2023/02/10 08:16:35;;;;;;;27.83;9.93;;;;;;;;;;5024731;28;20058;-88
2023/02/10 08:19:03;;;;;;;21.02;11.25;;;;;;;;;;5006196;28;20940;-88
2023/02/10 08:21:37;;;;;;;32.60;10.48;;;;;;;;;;5008791;28;20073;-87
2023/02/10 08:24:05;;;;;;;26.25;10.75;;;;;;;;;;5022773;28;20057;-85
2023/02/10 08:26:34;;;;;;;23.25;11.02;;;;;;;;;;5023137;28;20395;-88
2023/02/10 08:29:02;;;;;;;25.15;10.95;;;;;;;;;;5008685;28;20050;-87
2023/02/10 08:31:29;;;;;;;;;;;;;;;;;;5026942;28;20057;-87
2023/02/10 08:33:58;;;;;;;19.83;9.48;;;;;;;;;;5012278;28;19925;-86
2023/02/10 08:36:32;;;;;;;24.70;10.07;;;;;;;;;;5000551;28;20049;-86
2023/02/10 08:38:59;;;;;;;18.52;10.52;;;;;;;;;;5002448;28;20052;-87
2023/02/10 08:41:29;;;;;;;;;;;;;;;;;;5005192;28;20065;-86
2023/02/10 08:43:57;;;;;;;18.70;9.35;;;;;;;;;;5001851;28;20618;-87
2023/02/10 08:46:25;;;;;;;32.35;10.73;;;;;;;;;;4994623;28;20061;-88
2023/02/10 08:49:00;;;;;;;29.33;11.25;;;;;;;;;;5021595;28;20058;-89
2023/02/10 08:51:30;;;;;;;26.40;11.98;;;;;;;;;;5004711;28;20058;-87
2023/02/10 08:54:03;;;;;;;27.88;10.38;;;;;;;;;;5005073;28;20514;-88
2023/02/10 08:56:31;;;;;;;27.00;11.18;;;;;;;;;;5005304;28;20425;-88
2023/02/10 08:58:59;;;;;;;24.35;10.93;;;;;;;;;;5004874;28;20601;-88
2023/02/10 09:01:26;;;;;;;;;;;;;;;;;;5004196;28;20065;-89
2023/02/10 09:03:54;;;;;;;;;;;;;;;;;;5024387;28;20639;-89
2023/02/10 09:06:24;;;;;;;27.95;11.00;;;;;;;;;;5005199;28;19929;-89
2023/02/10 09:08:53;;;;;;;28.40;10.48;;;;;;;;;;5002668;28;20061;-89
2023/02/10 09:11:23;;;;;;;25.95;12.13;;;;;;;;;;5004523;28;20053;-88
2023/02/10 09:13:51;;;;;;;29.13;11.30;;;;;;;;;;5000748;28;20060;-86
2023/02/10 09:16:19;;;;;;;34.28;12.18;;;;;;;;;;5006093;28;20053;-89
2023/02/10 09:18:46;;;;;;;;;;;;;;;;;;5004205;28;20064;-87
2023/02/10 09:21:14;;;;;;;23.92;10.63;;;;;;;;;;5003193;28;20271;-88
2023/02/10 09:23:43;;;;;;;32.95;11.57;;;;;;;;;;5009663;28;20068;-87
2023/02/10 09:26:11;;;;;;;24.13;10.90;;;;;;;;;;5001461;28;20046;-91
2023/02/10 09:28:39;;;;;;;20.85;10.00;;;;;;;;;;5022046;28;20061;-88
2023/02/10 09:31:07;;;;;;;32.15;10.93;;;;;;;;;;5008458;28;20057;-88
2023/02/10 09:33:36;;;;;;;23.58;10.48;;;;;;;;;;5011442;28;20065;-88
2023/02/10 09:36:04;;;;;;;23.40;10.20;;;;;;;;;;5010804;28;20052;-90
2023/02/10 09:38:33;;;;;;;37.38;12.90;;;;;;;;;;5010908;28;20061;-88
2023/02/10 09:41:13;;;;;;;25.25;11.25;;;;;;;;;;5008168;28;20061;-87
2023/02/10 09:43:49;;;;;;;18.95;8.57;;;;;;;;;;5010363;28;20064;-86
2023/02/10 09:46:23;;;;;;;30.67;11.50;;;;;;;;;;4991432;28;20069;-86
2023/02/10 09:49:01;;;;;;;28.13;11.52;;;;;;;;;;5008932;28;20116;-86
2023/02/10 09:51:40;;;;;;;23.00;11.40;;;;;;;;;;5008245;28;20053;-85
2023/02/10 09:54:09;;;;;;;22.65;9.90;;;;;;;;;;5020496;28;20049;-84
2023/02/10 09:56:44;;;;;;;31.90;10.82;;;;;;;;;;5001566;28;20061;-86
2023/02/10 09:59:15;;;;;;;27.25;11.10;;;;;;;;;;5002991;28;20054;-85
2023/02/10 10:01:44;;;;;;;30.17;11.30;;;;;;;;;;5007933;28;20691;-89
2023/02/10 10:04:14;;;;;;;30.65;11.05;;;;;;;;;;5000966;28;20925;-85
2023/02/10 10:06:49;;;;;;;31.60;10.93;;;;;;;;;;5003374;28;20049;-86
2023/02/10 10:09:22;;;;;;;25.33;10.50;;;;;;;;;;5001200;28;20060;-89
2023/02/10 10:11:52;;;;;;;27.77;11.68;;;;;;;;;;5005446;28;20056;-84
2023/02/10 10:14:21;;;;;;;23.00;11.27;;;;;;;;;;5011772;28;20661;-87
2023/02/10 10:17:04;;;;;;;26.10;11.02;;;;;;;;;;5008366;28;20056;-86
2023/02/10 10:19:42;;;;;;;39.42;12.68;;;;;;;;;;5002845;28;20068;-87
2023/02/10 10:22:19;;;;;;;29.92;12.10;;;;;;;;;;5018303;28;20062;-87
2023/02/10 10:25:04;;;;;;;24.25;10.07;;;;;;;;;;5006872;28;20490;-88
2023/02/10 10:27:38;;;;;;;30.25;12.27;;;;;;;;;;5005057;28;20084;-86
2023/02/10 10:30:08;;;;;;;23.52;10.73;;;;;;;;;;5004280;28;20112;-87
2023/02/10 10:32:40;;;;;;;19.55;9.90;;;;;;;;;;5000850;28;20991;-86
2023/02/10 10:35:14;;;;;;;25.10;10.63;;;;;;;;;;5018136;28;20834;-88
2023/02/10 10:37:42;;;;;;;22.48;10.30;;;;;;;;;;5006696;28;20056;-87
2023/02/10 10:40:16;;;;;;;27.98;10.93;;;;;;;;;;5004225;28;20073;-86
2023/02/10 10:42:51;;;;;;;21.33;10.70;;;;;;;;;;5010031;28;20045;-87
2023/02/10 10:45:26;;;;;;;31.40;10.98;;;;;;;;;;4993267;28;20191;-87
2023/02/10 10:47:57;;;;;;;29.90;9.88;;;;;;;;;;5002498;28;20057;-86
2023/02/10 10:50:29;;;;;;;24.27;10.95;;;;;;;;;;5016679;28;20073;-86
2023/02/10 10:53:04;;;;;;;27.13;11.00;;;;;;;;;;5004770;28;20056;-88
2023/02/10 10:55:35;;;;;;;19.85;9.20;;;;;;;;;;5001962;28;20062;-87
2023/02/10 10:58:11;;;;;;;17.85;9.55;;;;;;;;;;5005512;28;20057;-86
2023/02/10 11:00:49;;;;;;;23.40;10.10;;;;;;;;;;5002975;28;20711;-87
2023/02/10 11:03:17;;;;;;;17.85;8.68;;;;;;;;;;5002972;28;20058;-89
2023/02/10 11:05:59;;;;;;;22.70;9.38;;;;;;;;;;5006894;28;20046;-85
2023/02/10 11:08:34;;;;;;;23.67;9.52;;;;;;;;;;5007808;28;20057;-88
2023/02/10 11:11:03;;;;;;;20.98;10.10;;;;;;;;;;5005873;28;20513;-85
2023/02/10 11:13:33;;;;;;;25.00;9.27;;;;;;;;;;5000152;28;20419;-86
2023/02/10 11:16:03;;;;;;;22.30;9.13;;;;;;;;;;5001815;28;20049;-87
2023/02/10 11:18:31;;;;;;;18.20;9.25;;;;;;;;;;5004967;28;20434;-87
2023/02/10 11:21:00;;;;;;;17.48;8.32;;;;;;;;;;5004022;28;20046;-84
2023/02/10 11:23:29;;;;;;;20.88;7.68;;;;;;;;;;5007001;28;20061;-86
2023/02/10 11:25:59;;;;;;;16.05;8.50;;;;;;;;;;5003985;28;20064;-88
2023/02/10 11:28:35;;;;;;;26.00;10.63;;;;;;;;;;5001949;28;20512;-85
2023/02/10 11:31:05;;;;;;;17.95;8.73;;;;;;;;;;5000737;28;20053;-87
2023/02/10 11:33:35;;;;;;;27.10;10.50;;;;;;;;;;5001776;28;20057;-87
2023/02/10 11:36:09;;;;;;;20.80;10.18;;;;;;;;;;5021118;28;20068;-88
2023/02/10 11:38:37;;;;;;;21.75;9.20;;;;;;;;;;5017176;28;20058;-87
2023/02/10 11:41:08;;;;;;;28.65;11.50;;;;;;;;;;5001843;28;20053;-85
2023/02/10 11:43:40;;;;;;;20.33;10.13;;;;;;;;;;5013774;28;20065;-84
2023/02/10 11:46:18;;;;;;;26.30;11.55;;;;;;;;;;4991285;28;20498;-88
2023/02/10 11:48:48;;;;;;;;;;;;;;;;;;5002895;28;21364;-86
2023/02/10 11:51:21;;;;;;;23.35;9.48;;;;;;;;;;5005965;28;19925;-89
2023/02/10 11:53:53;;;;;;;19.30;9.80;;;;;;;;;;5010734;28;20625;-86
2023/02/10 11:58:58;;;;;;;33.50;11.68;;;;;;;;;;5023317;28;20053;-88
2023/02/10 11:59:27;;;;;;;30.58;9.75;;;;;;;;;;4998468;28;20592;-87
2023/02/10 12:02:04;;;;;;;30.27;11.77;;;;;;;;;;5010846;28;20781;-86
2023/02/10 12:04:57;;;;;;;23.27;11.35;;;;;;;;;;5016966;28;20069;-90
2023/02/10 12:07:31;;;;;;;25.98;11.07;;;;;;;;;;4986063;28;20065;-89
2023/02/10 12:10:02;;;;;;;24.23;11.13;;;;;;;;;;5017282;28;20064;-87
2023/02/10 12:12:38;;;;;;;18.00;10.48;;;;;;;;;;4998337;28;20069;-87
2023/02/10 12:15:14;;;;;;;18.77;9.45;;;;;;;;;;5004653;28;21003;-85
2023/02/10 12:17:49;;;;;;;25.38;11.82;;;;;;;;;;5019514;28;20057;-87
2023/02/10 12:20:26;;;;;;;26.30;11.05;;;;;;;;;;5003813;28;20855;-85
2023/02/10 12:23:12;;;;;;;17.65;9.13;;;;;;;;;;5003353;28;20065;-85
2023/02/10 12:25:43;;;;;;;21.30;10.45;;;;;;;;;;5003296;28;20054;-86
2023/02/10 12:28:13;;;;;;;22.25;10.10;;;;;;;;;;5023192;28;20054;-86
2023/02/10 12:30:53;;;;;;;21.00;10.73;;;;;;;;;;5010970;28;20052;-88
2023/02/10 12:33:30;;;;;;;31.50;10.73;;;;;;;;;;5008031;28;20045;-85
2023/02/10 12:36:03;;;;;;;29.25;9.82;;;;;;;;;;5021874;28;20812;-86
2023/02/10 12:38:42;;;;;;;25.10;11.45;;;;;;;;;;5005583;28;20070;-87
2023/02/10 12:41:15;;;;;;;19.75;9.65;;;;;;;;;;5005205;28;21551;-86
2023/02/10 12:43:51;;;;;;;28.35;10.70;;;;;;;;;;5003090;28;20057;-86
2023/02/10 12:46:24;;;;;;;23.52;11.95;;;;;;;;;;4993974;28;20718;-86
2023/02/10 12:48:57;;;;;;;;;;;;;;;;;;5002615;28;20068;-86
2023/02/10 12:51:29;;;;;;;;;;;;;;;;;;5012184;28;21135;-85
2023/02/10 12:53:57;;;;;;;;;;;;;;;;;;5007323;28;20739;-87
2023/02/10 12:56:24;;;;;;;;;;;;;;;;;;5009558;28;19930;-87
2023/02/10 12:58:52;;;;;;;;;;;;;;;;;;5006500;28;19929;-85
2023/02/10 13:01:19;;;;;;;;;;;;;;;;;;5009729;28;21209;-85
2023/02/10 13:03:52;;;;;;;;;;;;;;;;;;5004038;28;20453;-82
2023/02/10 13:06:19;;;;;;;;;;;;;;;;;;5025045;28;19937;-88
2023/02/10 13:08:47;;;;;;;;;;;;;;;;;;5011696;28;19929;-88
2023/02/10 13:11:14;;;;;;;;;;;;;;;;;;5011851;28;19929;-89
2023/02/10 13:13:43;;;;;;;;;;;;;;;;;;5011266;28;20592;-89
2023/02/10 13:16:11;;;;;;;;;;;;;;;;;;5007590;28;19928;-87
2023/02/10 13:18:39;;;;;;;;;;;;;;;;;;5011518;28;20287;-86
2023/02/10 13:21:06;;;;;;;;;;;;;;;;;;5012554;28;21502;-87
2023/02/10 13:23:34;;;;;;;;;;;;;;;;;;5012055;28;19932;-87
2023/02/10 13:26:02;;;;;;;;;;;;;;;;;;5008560;28;19936;-87
2023/02/10 13:28:30;;;;;;;;;;;;;;;;;;5006983;28;19948;-86
2023/02/10 13:30:59;;;;;;;;;;;;;;;;;;5010294;28;19929;-88
2023/02/10 13:33:31;;;;;;;;;;;;;;;;;;5006693;28;19930;-88
2023/02/10 13:35:59;;;;;;;;;;;;;;;;;;5005758;28;19929;-87
2023/02/10 13:38:32;;;;;;;;;;;;;;;;;;5004194;28;19929;-88
2023/02/10 13:43:46;;;;;;;;;;;;;;;;;;5006725;28;19940;-83
2023/02/10 13:46:14;;;;;;;;;;;;;;;;;;4995649;28;19929;-87
2023/02/10 13:48:46;;;;;;;;;;;;;;;;;;5005139;28;19935;-87
2023/02/10 13:51:14;;;;;;;;;;;;;;;;;;5002777;28;20289;-86
2023/02/10 13:53:42;;;;;;;;;;;;;;;;;;5004835;28;19936;-88
2023/02/10 13:56:14;;;;;;;;;;;;;;;;;;5026614;28;19932;-86
2023/02/10 13:58:42;;;;;;;;;;;;;;;;;;5013917;28;19929;-84
2023/02/10 14:01:11;;;;;;;;;;;;;;;;;;5003322;28;19929;-86
2023/02/10 14:03:39;;;;;;;;;;;;;;;;;;5004201;28;19929;-88
2023/02/10 14:06:06;;;;;;;;;;;;;;;;;;5008754;28;19929;-87
2023/02/10 14:08:34;;;;;;;;;;;;;;;;;;5001359;28;19940;-88
2023/02/10 14:11:02;;;;;;;;;;;;;;;;;;5006501;28;19932;-87
2023/02/10 14:13:34;;;;;;;;;;;;;;;;;;5007388;28;19959;-88
2023/02/10 14:16:02;;;;;;;;;;;;;;;;;;5005384;28;19929;-89
2023/02/10 14:18:34;;;;;;;;;;;;;;;;;;5013148;28;19930;-88
2023/02/10 14:21:02;;;;;;;;;;;;;;;;;;5006658;28;20324;-91
2023/02/10 14:23:34;;;;;;;;;;;;;;;;;;5005310;28;19929;-85
2023/02/10 14:26:02;;;;;;;;;;;;;;;;;;5005509;28;19929;-86
2023/02/10 14:28:30;;;;;;;;;;;;;;;;;;5010736;28;19932;-88
2023/02/10 14:30:58;;;;;;;;;;;;;;;;;;5008680;28;19928;-88
2023/02/10 14:33:25;;;;;;;;;;;;;;;;;;5006494;28;19945;-89
2023/02/10 14:35:58;;;;;;;;;;;;;;;;;;5018664;28;20377;-86
2023/02/10 14:38:30;;;;;;;;;;;;;;;;;;5009848;28;20482;-90
2023/02/10 14:40:58;;;;;;;;;;;;;;;;;;5021920;28;19929;-86
2023/02/10 14:43:31;;;;;;;;;;;;;;;;;;5011413;28;19936;-87
2023/02/10 14:45:58;;;;;;;;;;;;;;;;;;4997058;28;19929;-89
2023/02/10 14:48:31;;;;;;;;;;;;;;;;;;5004383;28;19939;-89
2023/02/10 14:50:59;;;;;;;;;;;;;;;;;;5006722;28;19992;-88
2023/02/10 14:53:27;;;;;;;;;;;;;;;;;;5006009;28;20013;-88
2023/02/10 14:55:54;;;;;;;;;;;;;;;;;;5002079;28;19928;-87
2023/02/10 14:58:27;;;;;;;;;;;;;;;;;;5008579;28;19930;-89
2023/02/10 15:00:55;;;;;;;;;;;;;;;;;;5010376;28;19936;-89
2023/02/10 15:03:23;;;;;;;;;;;;;;;;;;5010978;28;19936;-86
2023/02/10 15:05:52;;;;;;;;;;;;;;;;;;5008740;28;19933;-89